Time;durP1;ratioP1;P1;durP2;ratioP2;P2;SDS_P1;SDS_P2;PMS_P1;PMS_P2;Temp;Humidity;BMP_temperature;BMP_pressure;BME280_temperature;BME280_humidity;BME280_pressure;Samples;Min_cycle;Max_cycle;Signal;HPM_P1;HPM_P2
2023/12/08 00:01:33;;;;;;;12.67;5.63;;;;;;;-10.94;58.86;102274.66;4726720;30;20048;-65
2023/12/08 00:03:59;;;;;;;14.97;6.57;;;;;;;-11.29;59.32;102190.91;4724976;30;20052;-65
2023/12/08 00:06:25;;;;;;;10.53;4.23;;;;;;;-10.67;59.29;102280.19;4709917;30;20078;-66
2023/12/08 00:08:51;;;;;;;8.17;3.90;;;;;;;-10.89;59.09;102260.06;4709025;30;20056;-65
2023/12/08 00:11:17;;;;;;;11.30;4.67;;;;;;;-11.11;59.28;102231.50;4724099;30;20052;-65
2023/12/08 00:13:44;;;;;;;10.60;5.33;;;;;;;-10.95;59.96;102241.75;4692522;30;20053;-65
2023/12/08 00:16:10;;;;;;;15.57;6.27;;;;;;;-10.77;60.22;102245.50;4692208;30;20044;-65
2023/12/08 00:18:36;;;;;;;12.83;5.30;;;;;;;-10.90;59.37;102253.25;4726724;30;20468;-64
2023/12/08 00:21:02;;;;;;;16.10;5.03;;;;;;;-11.11;59.14;102265.13;4696535;30;20071;-65
2023/12/08 00:23:29;;;;;;;11.13;5.60;;;;;;;-11.00;60.82;102275.53;4707019;30;20044;-65
2023/12/08 00:25:55;;;;;;;17.03;5.73;;;;;;;-10.90;60.69;102263.31;4692759;30;20045;-64
2023/12/08 00:28:20;;;;;;;11.67;5.13;;;;;;;-10.90;59.03;102284.31;4727378;30;20056;-65
2023/12/08 00:30:46;;;;;;;12.50;5.77;;;;;;;-11.07;59.22;102268.88;4726582;30;20543;-65
2023/12/08 00:33:12;;;;;;;12.83;5.97;;;;;;;-11.02;60.03;102257.75;4724572;30;20044;-65
2023/12/08 00:35:38;;;;;;;14.57;5.37;;;;;;;-10.76;60.20;102275.00;4726198;30;20062;-65
2023/12/08 00:38:04;;;;;;;8.10;3.40;;;;;;;-10.72;59.30;102264.56;4716529;30;20052;-65
2023/12/08 00:40:29;;;;;;;16.27;5.40;;;;;;;-10.58;60.20;102277.84;4723140;30;20140;-65
2023/12/08 00:42:55;;;;;;;11.70;4.43;;;;;;;-10.79;58.68;102277.13;4715652;30;20051;-65
2023/12/08 00:45:21;;;;;;;13.80;5.43;;;;;;;-11.16;60.60;102204.94;4711734;30;20104;-67
2023/12/08 00:47:47;;;;;;;8.60;3.73;;;;;;;-10.83;59.82;102239.75;4680749;30;20045;-68
2023/12/08 00:50:13;;;;;;;11.93;4.13;;;;;;;-11.05;59.64;102202.97;4706598;30;20522;-66
2023/12/08 00:52:39;;;;;;;14.20;5.80;;;;;;;-10.64;60.90;102243.69;4736985;30;20063;-67
2023/12/08 00:55:05;;;;;;;12.20;5.40;;;;;;;-10.40;60.30;102261.44;4730397;30;20095;-65
2023/12/08 00:57:31;;;;;;;13.53;4.90;;;;;;;-10.77;60.39;102152.41;4741185;30;20048;-66
2023/12/08 00:59:57;;;;;;;12.90;5.90;;;;;;;-10.29;60.68;102264.44;4724468;30;20567;-68
2023/12/08 01:02:23;;;;;;;16.87;6.47;;;;;;;-10.36;61.09;102240.88;4707309;30;20142;-65
2023/12/08 01:04:49;;;;;;;11.20;4.73;;;;;;;-10.72;59.96;102211.72;4727551;30;20056;-66
2023/12/08 01:07:15;;;;;;;11.10;4.63;;;;;;;-10.91;58.83;102246.41;4742377;30;20055;-66
2023/12/08 01:09:41;;;;;;;13.10;5.23;;;;;;;-11.01;60.34;102210.84;4733151;30;20106;-67
2023/12/08 01:12:07;;;;;;;10.57;4.90;;;;;;;-10.83;59.76;102232.22;4734196;30;20052;-67
2023/12/08 01:14:33;;;;;;;13.10;6.07;;;;;;;-10.71;61.22;102222.66;4750383;30;20508;-67
2023/12/08 01:16:58;;;;;;;11.60;5.30;;;;;;;-10.20;61.12;102269.63;4734661;30;20048;-65
2023/12/08 01:19:24;;;;;;;18.90;7.20;;;;;;;-10.46;60.06;102218.81;4739993;30;20059;-66
2023/12/08 01:21:50;;;;;;;15.57;5.63;;;;;;;-10.31;59.38;102264.97;4721969;30;20048;-67
2023/12/08 01:24:16;;;;;;;16.67;6.93;;;;;;;-10.53;59.48;102254.09;4727120;30;20071;-67
2023/12/08 01:26:46;;;;;;;23.40;7.40;;;;;;;-10.39;61.14;102260.72;4712319;30;20092;-67
2023/12/08 01:29:12;;;;;;;20.67;7.60;;;;;;;-10.12;61.38;102237.72;4736571;30;20043;-67
2023/12/08 01:31:38;;;;;;;16.37;6.30;;;;;;;-9.72;61.93;102242.22;4725762;30;20051;-67
2023/12/08 01:34:06;;;;;;;10.67;5.13;;;;;;;-9.73;60.00;102240.41;4716540;30;20053;-67
2023/12/08 01:36:32;;;;;;;16.95;6.32;;;;;;;-10.11;59.04;102229.47;4731963;30;20036;-66
2023/12/08 01:38:58;;;;;;;16.13;6.57;;;;;;;-10.06;61.01;102229.97;4717785;30;20512;-67
2023/12/08 01:41:24;;;;;;;16.03;5.57;;;;;;;-10.39;60.28;102201.16;4722075;30;20044;-67
2023/12/08 01:43:50;;;;;;;11.63;5.00;;;;;;;-10.20;60.24;102210.78;4714345;30;20044;-68
2023/12/08 01:46:19;;;;;;;11.97;6.40;;;;;;;-10.31;59.78;102235.66;4743402;30;20130;-67
2023/12/08 01:48:46;;;;;;;8.77;4.77;;;;;;;-10.67;58.99;102189.59;4712846;30;20051;-67
2023/12/08 01:51:14;;;;;;;15.43;6.80;;;;;;;-10.50;60.59;102235.19;4732880;30;20201;-68
2023/12/08 01:53:41;;;;;;;15.43;6.43;;;;;;;-10.29;60.31;102241.75;4742379;30;20059;-68
2023/12/08 01:56:08;;;;;;;22.38;7.40;;;;;;;-10.33;61.16;102190.84;4708882;30;20049;-67
2023/12/08 01:58:34;;;;;;;14.00;6.80;;;;;;;-9.89;60.68;102217.63;4707234;30;20135;-67
2023/12/08 02:01:07;;;;;;;12.13;5.47;;;;;;;-9.60;60.05;102239.28;4740582;30;20055;-66
2023/12/08 02:03:33;;;;;;;16.52;6.25;;;;;;;-9.90;60.17;102209.91;4741802;30;20055;-67
2023/12/08 02:06:00;;;;;;;15.23;6.10;;;;;;;-10.03;59.58;102200.97;4740846;30;20044;-67
2023/12/08 02:08:29;;;;;;;11.80;4.77;;;;;;;-10.30;58.67;102247.53;4707773;30;20143;-67
2023/12/08 02:10:55;;;;;;;16.10;6.53;;;;;;;-10.50;60.47;102214.16;4726697;30;20052;-67
2023/12/08 02:13:22;;;;;;;9.68;4.10;;;;;;;-10.41;59.64;102245.41;4725370;30;20047;-68
2023/12/08 02:15:57;;;;;;;8.93;4.10;;;;;;;-10.57;59.64;102219.22;4726200;30;20420;-67
2023/12/08 02:18:24;;;;;;;13.50;4.30;;;;;;;-10.54;60.15;102230.53;4726605;30;20160;-67
2023/12/08 02:21:13;;;;;;;8.20;3.43;;;;;;;-10.58;60.20;102242.59;4704600;30;20083;-67
2023/12/08 02:23:48;;;;;;;10.90;4.70;;;;;;;-10.42;60.68;102245.25;4741125;30;20937;-66
2023/12/08 02:26:16;;;;;;;12.37;4.97;;;;;;;-10.22;61.55;102224.81;4726550;30;20135;-67
2023/12/08 02:28:43;;;;;;;13.83;5.47;;;;;;;-10.07;61.00;102230.69;4710830;30;20131;-65
2023/12/08 02:31:13;;;;;;;13.60;5.77;;;;;;;-10.21;60.46;102237.59;4725126;30;20214;-65
2023/12/08 02:33:45;;;;;;;11.37;4.67;;;;;;;-9.94;61.78;102241.44;4707260;30;20444;-67
2023/12/08 02:36:17;;;;;;;12.93;5.32;;;;;;;-9.73;61.28;102231.97;4725208;30;20060;-66
2023/12/08 02:38:44;;;;;;;;;;;;;;;-9.60;60.27;102237.63;4735967;30;20067;-67
2023/12/08 02:41:09;;;;;;;11.13;5.10;;;;;;;-9.78;60.16;102225.50;4709829;30;19981;-66
2023/12/08 02:43:35;;;;;;;12.77;4.43;;;;;;;-10.35;58.98;102228.47;4741418;30;20516;-65
2023/12/08 02:46:01;;;;;;;13.80;5.53;;;;;;;-10.34;60.90;102247.88;4742758;30;20278;-67
2023/12/08 02:48:27;;;;;;;14.20;5.90;;;;;;;-10.21;60.68;102244.22;4713470;30;20055;-66
2023/12/08 02:50:53;;;;;;;14.10;5.73;;;;;;;-10.34;60.23;102215.16;4742634;30;20051;-67
2023/12/08 02:53:19;;;;;;;17.70;5.60;;;;;;;-10.30;61.64;102206.31;4729443;30;20044;-67
2023/12/08 02:55:45;;;;;;;18.07;5.97;;;;;;;-10.16;61.16;102187.72;4743643;30;20580;-67
2023/12/08 02:58:11;;;;;;;15.50;5.32;;;;;;;-9.82;60.91;102203.19;4712563;30;20051;-67
2023/12/08 03:00:37;;;;;;;16.10;6.23;;;;;;;-9.89;61.01;102182.34;4742321;30;20158;-67
2023/12/08 03:03:03;;;;;;;16.20;6.28;;;;;;;-9.99;60.60;102197.19;4744215;30;21572;-67
2023/12/08 03:05:29;;;;;;;12.80;5.80;;;;;;;-10.38;60.00;102182.78;4743593;30;20044;-67
2023/12/08 03:07:54;;;;;;;12.37;5.20;;;;;;;-10.30;59.67;102239.06;4743709;30;20107;-66
2023/12/08 03:10:20;;;;;;;11.83;4.87;;;;;;;-10.54;59.84;102230.53;4735220;30;21262;-65
2023/12/08 03:12:46;;;;;;;9.98;3.92;;;;;;;-10.60;59.30;102230.72;4742885;30;20146;-66
2023/12/08 03:15:12;;;;;;;13.57;5.67;;;;;;;-10.57;59.98;102216.69;4719753;30;20044;-66
2023/12/08 03:17:38;;;;;;;13.40;5.03;;;;;;;-10.42;60.81;102200.81;4743368;30;20079;-66
2023/12/08 03:20:05;;;;;;;7.70;3.43;;;;;;;-10.45;59.30;102240.75;4744129;30;20075;-67
2023/12/08 03:22:31;;;;;;;12.17;4.90;;;;;;;-10.51;60.44;102240.06;4727601;30;20056;-67
2023/12/08 03:24:56;;;;;;;12.30;5.80;;;;;;;-10.39;60.45;102220.44;4723584;30;20045;-66
2023/12/08 03:27:22;;;;;;;13.70;4.50;;;;;;;-10.27;60.50;102219.25;4741850;30;20101;-67
2023/12/08 03:29:48;;;;;;;7.43;3.47;;;;;;;-10.63;58.44;102205.19;4712994;30;20048;-66
2023/12/08 03:32:14;;;;;;;14.70;4.90;;;;;;;-10.83;60.48;102224.66;4744066;30;20062;-67
2023/12/08 03:34:40;;;;;;;10.67;5.63;;;;;;;-10.64;60.48;102245.31;4744579;30;20056;-67
2023/12/08 03:37:06;;;;;;;12.43;4.73;;;;;;;-10.84;59.25;102232.94;4742480;30;20046;-66
2023/12/08 03:39:31;;;;;;;13.37;5.07;;;;;;;-11.11;59.84;102224.88;4740525;30;20533;-66
2023/12/08 03:41:57;;;;;;;12.20;4.80;;;;;;;-11.01;60.34;102244.44;4744523;30;20142;-67
2023/12/08 03:44:23;;;;;;;15.40;5.30;;;;;;;-10.83;60.77;102245.69;4728506;30;20647;-66
2023/12/08 03:46:50;;;;;;;13.93;4.87;;;;;;;-10.99;60.53;102220.38;4723654;30;20487;-66
2023/12/08 03:49:16;;;;;;;10.13;4.93;;;;;;;-10.98;60.45;102239.78;4743029;30;20504;-66
2023/12/08 03:51:42;;;;;;;11.87;5.37;;;;;;;-10.81;61.25;102248.38;4724426;30;20052;-66
2023/12/08 03:54:07;;;;;;;14.63;5.67;;;;;;;-10.60;61.76;102225.69;4742463;30;20089;-68
2023/12/08 03:56:33;;;;;;;11.27;4.40;;;;;;;-10.48;60.69;102235.38;4728970;30;20052;-66
2023/12/08 03:58:59;;;;;;;12.37;6.00;;;;;;;-10.47;60.91;102222.97;4728095;30;20138;-66
2023/12/08 04:01:26;;;;;;;13.13;5.17;;;;;;;-9.99;61.69;102242.53;4714632;30;20052;-65
2023/12/08 04:03:51;;;;;;;14.20;5.60;;;;;;;-9.93;60.27;102230.63;4714704;30;20051;-65
2023/12/08 04:06:17;;;;;;;12.30;5.63;;;;;;;-10.07;60.41;102248.31;4709170;30;20051;-65
2023/12/08 04:08:43;;;;;;;12.83;5.67;;;;;;;-10.00;61.41;102218.94;4728285;30;20059;-67
2023/12/08 04:11:09;;;;;;;13.23;4.90;;;;;;;-9.85;59.40;102256.69;4733613;30;20055;-66
2023/12/08 04:13:37;;;;;;;11.10;3.93;;;;;;;-10.14;58.93;102234.13;4744132;30;20048;-67
2023/12/08 04:16:04;;;;;;;12.77;4.57;;;;;;;-10.18;59.99;102248.03;4714359;30;20063;-66
2023/12/08 04:18:29;;;;;;;8.47;4.10;;;;;;;-10.48;59.24;102266.47;4743070;30;20496;-68
2023/12/08 04:20:55;;;;;;;12.33;4.30;;;;;;;-10.40;59.63;102262.31;4744853;30;20063;-69
2023/12/08 04:23:21;;;;;;;16.00;5.43;;;;;;;-10.80;59.43;102235.97;4728347;30;20079;-66
2023/12/08 04:25:47;;;;;;;15.17;6.10;;;;;;;-10.44;61.60;102250.09;4714445;30;20143;-70
2023/12/08 04:28:13;;;;;;;10.97;5.00;;;;;;;-10.12;61.12;102240.25;4743631;30;20075;-71
2023/12/08 04:30:39;;;;;;;13.70;5.80;;;;;;;-9.71;61.79;102263.28;4745188;30;20138;-65
2023/12/08 04:33:05;;;;;;;15.20;5.50;;;;;;;-9.51;60.55;102262.09;4724323;30;20151;-68
2023/12/08 04:35:31;;;;;;;13.83;6.27;;;;;;;-9.46;61.29;102266.91;4716822;30;20175;-66
2023/12/08 04:37:57;;;;;;;16.43;6.97;;;;;;;-9.68;59.94;102262.00;4734223;30;20084;-66
2023/12/08 04:40:22;;;;;;;10.33;5.33;;;;;;;-10.37;58.50;102262.66;4744182;30;20051;-65
2023/12/08 04:42:48;;;;;;;13.33;6.10;;;;;;;-10.49;59.87;102279.78;4723641;30;20048;-66
2023/12/08 04:45:14;;;;;;;17.63;6.50;;;;;;;-10.53;60.57;102239.88;4743492;30;20450;-67
2023/12/08 04:47:40;;;;;;;12.55;5.63;;;;;;;-10.31;60.11;102245.72;4734047;30;20682;-66
2023/12/08 04:50:07;;;;;;;10.73;4.57;;;;;;;-10.09;59.76;102264.88;4724815;30;20048;-66
2023/12/08 04:52:34;;;;;;;11.27;4.87;;;;;;;-10.34;59.26;102272.16;4718413;30;20151;-66
2023/12/08 04:55:01;;;;;;;13.13;5.93;;;;;;;-10.48;59.73;102241.31;4710037;30;20156;-66
2023/12/08 04:57:29;;;;;;;19.27;5.90;;;;;;;-10.38;60.07;102258.31;4709680;30;20134;-65
2023/12/08 04:59:55;;;;;;;14.83;5.80;;;;;;;-10.52;59.91;102244.19;4710080;30;20532;-66
2023/12/08 05:02:21;;;;;;;15.27;6.27;;;;;;;-10.61;59.68;102261.66;4711468;30;21338;-66
2023/12/08 05:04:47;;;;;;;13.40;6.63;;;;;;;-10.91;59.86;102228.81;4709636;30;20046;-66
2023/12/08 05:07:12;;;;;;;12.80;5.37;;;;;;;-10.96;59.06;102257.56;4710213;30;20114;-66
2023/12/08 05:09:38;;;;;;;11.90;5.73;;;;;;;-10.76;61.05;102254.84;4726497;30;20056;-66
2023/12/08 05:12:05;;;;;;;10.50;4.57;;;;;;;-10.71;59.87;102255.38;4710178;30;21395;-66
2023/12/08 05:14:31;;;;;;;17.97;7.20;;;;;;;-10.69;60.65;102257.34;4695976;30;20049;-66
2023/12/08 05:16:57;;;;;;;18.53;6.73;;;;;;;-10.28;61.80;102265.31;4724848;30;20052;-66
2023/12/08 05:19:29;;;;;;;10.40;4.77;;;;;;;-10.32;60.08;102233.84;4708353;30;20073;-67
2023/12/08 05:21:55;;;;;;;14.53;5.47;;;;;;;-10.27;59.81;102271.25;4725775;30;20056;-67
2023/12/08 05:24:21;;;;;;;10.90;4.70;;;;;;;-10.54;59.28;102264.88;4723621;30;20390;-67
2023/12/08 05:26:47;;;;;;;16.40;6.07;;;;;;;-10.58;60.00;102272.81;4723701;30;20556;-66
2023/12/08 05:29:13;;;;;;;14.33;5.43;;;;;;;-10.83;59.16;102265.84;4708490;30;20059;-66
2023/12/08 05:31:39;;;;;;;15.60;6.20;;;;;;;-10.68;61.20;102255.75;4705992;30;20049;-67
2023/12/08 05:34:05;;;;;;;15.23;5.93;;;;;;;-10.41;60.60;102277.25;4709314;30;20062;-68
2023/12/08 05:36:31;;;;;;;13.83;6.10;;;;;;;-10.24;61.22;102246.41;4722505;30;20066;-69
2023/12/08 05:38:57;;;;;;;16.53;6.10;;;;;;;-10.00;60.53;102270.97;4708159;30;20069;-70
2023/12/08 05:41:23;;;;;;;17.07;6.80;;;;;;;-10.24;60.34;102276.63;4709782;30;20056;-68
2023/12/08 05:43:50;;;;;;;12.07;5.97;;;;;;;-10.22;60.10;102293.72;4722561;30;20520;-69
2023/12/08 05:46:15;;;;;;;16.63;6.77;;;;;;;-10.24;60.41;102241.38;4726181;30;20052;-70
2023/12/08 05:48:41;;;;;;;14.37;6.13;;;;;;;-10.02;59.83;102275.81;4725362;30;20049;-69
2023/12/08 05:51:07;;;;;;;13.90;6.57;;;;;;;-10.41;59.18;102250.44;4710892;30;20505;-68
2023/12/08 05:53:33;;;;;;;15.33;5.33;;;;;;;-10.58;58.79;102292.94;4743482;30;20051;-69
2023/12/08 05:55:59;;;;;;;15.63;6.53;;;;;;;-11.05;59.37;102234.75;4711592;30;20044;-69
2023/12/08 05:58:25;;;;;;;16.43;6.90;;;;;;;-11.06;60.25;102235.47;4727059;30;20384;-69
2023/12/08 06:00:51;;;;;;;18.77;7.00;;;;;;;-10.81;60.48;102238.31;4725215;30;20432;-70
2023/12/08 06:03:17;;;;;;;14.97;6.27;;;;;;;-10.84;59.82;102211.19;4741854;30;20150;-69
2023/12/08 06:05:43;;;;;;;14.77;7.20;;;;;;;-10.30;60.54;102262.63;4727199;30;20060;-68
2023/12/08 06:08:09;;;;;;;12.07;5.50;;;;;;;-10.55;59.02;102288.25;4742348;30;20163;-66
2023/12/08 06:10:35;;;;;;;14.93;5.50;;;;;;;-10.58;59.30;102290.41;4741735;30;20048;-68
2023/12/08 06:13:01;;;;;;;18.00;8.30;;;;;;;-11.17;59.02;102200.63;4710790;30;20052;-69
2023/12/08 06:15:26;;;;;;;18.03;7.73;;;;;;;-10.86;60.89;102239.41;4742256;30;20106;-67
2023/12/08 06:17:52;;;;;;;15.50;5.20;;;;;;;-10.46;59.25;102286.78;4727798;30;20056;-68
2023/12/08 06:20:18;;;;;;;16.30;5.57;;;;;;;-10.88;59.15;102271.03;4730387;30;20117;-67
2023/12/08 06:22:44;;;;;;;16.67;6.17;;;;;;;-10.97;58.97;102263.31;4745449;30;20079;-68
2023/12/08 06:25:10;;;;;;;15.40;5.33;;;;;;;-10.85;59.52;102292.44;4757078;30;20128;-68
2023/12/08 06:27:37;;;;;;;4.20;2.60;;;;;;;-11.16;58.64;102276.25;4731125;30;20147;-69
2023/12/08 06:30:04;;;;;;;5.40;3.07;;;;;;;-11.14;59.66;102276.44;4729285;30;20048;-68
2023/12/08 06:32:30;;;;;;;16.60;6.47;;;;;;;-11.93;60.51;102160.00;4744947;30;20126;-67
2023/12/08 06:34:56;;;;;;;14.60;6.17;;;;;;;-11.96;60.13;102150.50;4722209;30;20109;-70
2023/12/08 06:37:22;;;;;;;15.03;7.07;;;;;;;-11.10;61.54;102234.22;4745589;30;20060;-66
2023/12/08 06:39:47;;;;;;;18.93;7.30;;;;;;;-10.83;61.38;102229.69;4744298;30;20213;-67
2023/12/08 06:42:13;;;;;;;16.90;6.50;;;;;;;-10.44;61.65;102252.63;4745527;30;20048;-68
2023/12/08 06:44:42;;;;;;;18.10;8.07;;;;;;;-9.94;61.92;102253.13;4719385;30;20146;-67
2023/12/08 06:47:10;;;;;;;10.50;5.27;;;;;;;-9.45;60.86;102252.66;4745610;30;20428;-66
2023/12/08 06:49:36;;;;;;;9.13;3.80;;;;;;;-9.28;59.66;102259.56;4744835;30;20048;-70
2023/12/08 06:52:02;;;;;;;17.93;7.77;;;;;;;-9.88;59.73;102209.34;4745679;30;20106;-70
2023/12/08 06:54:28;;;;;;;20.30;7.07;;;;;;;-9.52;60.11;102265.34;4745209;30;20147;-69
2023/12/08 06:56:53;;;;;;;14.27;6.13;;;;;;;-9.99;59.04;102233.34;4744999;30;20146;-68
2023/12/08 06:59:19;;;;;;;13.85;5.93;;;;;;;-9.82;59.88;102254.53;4744677;30;20051;-65
2023/12/08 07:01:45;;;;;;;11.55;4.70;;;;;;;-9.59;58.57;102263.72;4728513;30;20048;-66
2023/12/08 07:04:11;;;;;;;13.35;6.03;;;;;;;-8.94;59.64;102260.75;4729920;30;20048;-65
2023/12/08 07:06:37;;;;;;;14.55;6.68;;;;;;;-8.70;57.93;102229.69;4744704;30;20129;-65
2023/12/08 07:09:03;;;;;;;14.77;5.78;;;;;;;-8.72;57.21;102247.94;4744157;30;20048;-65
2023/12/08 07:11:29;;;;;;;17.65;7.35;;;;;;;-9.00;57.92;102240.78;4729646;30;20087;-65
2023/12/08 07:13:54;;;;;;;21.40;8.55;;;;;;;-8.87;58.37;102237.09;4721660;30;20059;-65
2023/12/08 07:16:21;;;;;;;23.55;9.30;;;;;;;-8.94;59.17;102238.94;4713919;30;20058;-64
2023/12/08 07:18:47;;;;;;;25.35;10.32;;;;;;;-8.54;60.16;102246.47;4726186;30;20044;-66
2023/12/08 07:21:12;;;;;;;22.63;7.90;;;;;;;-8.84;57.37;102263.53;4735422;30;20048;-64
2023/12/08 07:23:40;;;;;;;18.27;8.45;;;;;;;-8.84;58.99;102253.44;4745622;30;20392;-64
2023/12/08 07:26:05;;;;;;;19.27;8.30;;;;;;;-9.18;58.55;102264.91;4743750;30;20048;-65
2023/12/08 07:28:31;;;;;;;24.63;9.52;;;;;;;-9.32;58.27;102259.97;4727908;30;20047;-67
2023/12/08 07:30:57;;;;;;;22.70;8.90;;;;;;;-9.39;59.29;102231.56;4742646;30;20799;-64
2023/12/08 07:33:23;;;;;;;26.02;10.50;;;;;;;-9.27;58.63;102237.06;4743557;30;20071;-65
2023/12/08 07:35:49;;;;;;;28.38;10.70;;;;;;;-9.37;58.53;102244.31;4713833;30;20056;-65
2023/12/08 07:38:15;;;;;;;23.35;10.27;;;;;;;-9.47;58.51;102244.03;4743821;30;20508;-67
2023/12/08 07:40:41;;;;;;;21.98;9.48;;;;;;;-9.34;58.87;102268.97;4713930;30;20090;-64
2023/12/08 07:43:07;;;;;;;21.92;8.95;;;;;;;-10.02;57.34;102220.41;4710492;30;20199;-67
2023/12/08 07:45:33;;;;;;;18.52;7.93;;;;;;;-10.04;57.15;102244.50;4743595;30;20581;-64
2023/12/08 07:47:59;;;;;;;20.73;8.70;;;;;;;-10.11;56.98;102244.56;4720663;30;20047;-66
2023/12/08 07:50:24;;;;;;;14.67;5.67;;;;;;;-10.57;56.87;102241.88;4728737;30;21036;-68
2023/12/08 07:52:51;;;;;;;19.47;7.93;;;;;;;-10.99;57.03;102217.84;4744237;30;20067;-66
2023/12/08 07:55:20;;;;;;;18.98;7.53;;;;;;;-10.25;59.06;102216.91;4743680;30;20093;-64
2023/12/08 07:57:47;;;;;;;18.17;7.93;;;;;;;-9.73;59.17;102179.03;4742837;30;20048;-66
2023/12/08 08:00:14;;;;;;;21.73;8.38;;;;;;;-9.01;59.05;102217.91;4708502;30;20151;-64
2023/12/08 08:02:39;;;;;;;18.05;6.65;;;;;;;-8.80;56.89;102250.53;4734910;30;20052;-66
2023/12/08 08:05:05;;;;;;;19.02;8.55;;;;;;;-8.66;58.46;102244.44;4743794;30;20052;-65
2023/12/08 08:07:32;;;;;;;18.48;6.85;;;;;;;-9.01;56.34;102240.63;4743443;30;20106;-64
2023/12/08 08:09:57;;;;;;;19.40;7.82;;;;;;;-9.28;57.75;102226.78;4741770;30;20055;-64
2023/12/08 08:12:23;;;;;;;20.48;8.43;;;;;;;-9.03;57.00;102222.78;4734044;30;20048;-64
2023/12/08 08:14:49;;;;;;;20.02;9.70;;;;;;;-8.67;58.39;102198.81;4743583;30;20151;-65
2023/12/08 08:17:15;;;;;;;13.10;6.72;;;;;;;-8.75;55.62;102181.97;4743845;30;20059;-65
2023/12/08 08:19:41;;;;;;;18.60;7.45;;;;;;;-8.53;56.01;102201.19;4742990;30;20183;-66
2023/12/08 08:22:08;;;;;;;15.43;6.38;;;;;;;-8.53;54.94;102239.09;4742249;30;20137;-66
2023/12/08 08:24:34;;;;;;;16.20;7.28;;;;;;;-8.69;55.28;102240.66;4757782;30;20047;-66
2023/12/08 08:27:16;;;;;;;15.95;7.53;;;;;;;-8.73;54.95;102225.94;5088643;27;20935;-65
2023/12/08 08:29:41;;;;;;;17.67;7.80;;;;;;;-8.41;55.68;102236.94;5051774;28;20060;-65
2023/12/08 08:32:07;;;;;;;18.45;8.38;;;;;;;-8.41;57.30;102196.53;5070223;28;20048;-69
2023/12/08 08:34:33;;;;;;;20.35;8.90;;;;;;;-8.32;55.57;102222.75;5053117;28;20545;-66
2023/12/08 08:36:59;;;;;;;16.20;6.72;;;;;;;-8.46;55.17;102215.34;5086107;28;20505;-65
2023/12/08 08:39:25;;;;;;;19.48;7.88;;;;;;;-8.27;56.37;102235.84;5068138;28;20040;-66
2023/12/08 08:41:52;;;;;;;20.75;8.07;;;;;;;-8.75;55.17;102230.81;5087540;28;20048;-65
2023/12/08 08:44:18;;;;;;;18.83;7.75;;;;;;;-9.12;54.70;102227.72;5085851;28;20123;-65
2023/12/08 08:46:44;;;;;;;20.20;8.48;;;;;;;-9.49;55.12;102198.47;5053002;28;20232;-65
2023/12/08 08:49:11;;;;;;;17.40;8.20;;;;;;;-9.25;56.47;102194.34;5086488;28;20442;-68
2023/12/08 08:51:38;;;;;;;19.58;8.38;;;;;;;-8.96;55.62;102237.00;5088517;28;20062;-67
2023/12/08 08:54:04;;;;;;;11.93;5.20;;;;;;;-9.12;53.86;102241.97;5057884;28;20070;-66
2023/12/08 08:56:30;;;;;;;21.77;8.45;;;;;;;-9.81;55.36;102208.41;5088143;28;20406;-66
2023/12/08 08:58:56;;;;;;;20.33;8.55;;;;;;;-9.76;56.39;102192.16;5083569;28;20482;-67
2023/12/08 09:01:23;;;;;;;16.83;6.88;;;;;;;-9.66;54.89;102244.50;5068880;28;20040;-66
2023/12/08 09:03:49;;;;;;;18.38;8.73;;;;;;;-9.85;56.46;102197.09;5087245;28;20093;-66
2023/12/08 09:06:15;;;;;;;20.20;8.30;;;;;;;-9.62;56.05;102216.41;5069061;28;20142;-65
2023/12/08 09:08:41;;;;;;;12.93;5.97;;;;;;;-9.95;54.59;102158.09;5085576;28;20048;-65
2023/12/08 09:11:07;;;;;;;16.70;6.80;;;;;;;-9.83;56.07;102177.13;5086486;28;20044;-65
2023/12/08 09:13:33;;;;;;;16.52;7.65;;;;;;;-9.85;53.78;102208.81;5085760;28;20083;-65
2023/12/08 09:15:59;;;;;;;25.02;9.20;;;;;;;-10.03;55.73;102208.53;5053433;28;20509;-62
2023/12/08 09:18:25;;;;;;;19.02;7.18;;;;;;;-10.21;54.76;102196.38;5087112;28;20044;-64
2023/12/08 09:20:51;;;;;;;21.13;7.28;;;;;;;-10.23;56.28;102157.53;5069676;28;20062;-66
2023/12/08 09:23:17;;;;;;;11.52;6.22;;;;;;;-10.64;54.04;102129.53;5068387;28;20422;-66
2023/12/08 09:25:43;;;;;;;19.50;6.93;;;;;;;-9.59;54.47;102219.25;5068704;28;20162;-65
2023/12/08 09:28:09;;;;;;;20.45;8.02;;;;;;;-8.84;56.39;102185.28;5056368;28;20120;-66
2023/12/08 09:30:35;;;;;;;15.75;7.40;;;;;;;-7.80;56.76;102197.69;5084812;28;20074;-68
2023/12/08 09:33:00;;;;;;;17.45;7.90;;;;;;;-6.77;56.56;102192.06;5069285;28;20069;-66
2023/12/08 09:35:26;;;;;;;19.83;7.80;;;;;;;-5.74;54.60;102167.25;5066524;28;20042;-64
2023/12/08 09:37:52;;;;;;;16.08;6.03;;;;;;;-5.67;52.34;102163.66;5082329;28;20091;-66
2023/12/08 09:40:22;;;;;;;23.48;10.65;;;;;;;-6.38;53.11;102168.84;5072564;28;20083;-65
2023/12/08 09:42:57;;;;;;;24.98;11.02;;;;;;;-5.73;55.04;102168.13;5072009;28;20032;-65
2023/12/08 09:45:24;;;;;;;13.90;6.07;;;;;;;-6.18;49.79;102176.59;5088295;28;20040;-64
2023/12/08 09:47:54;;;;;;;17.48;8.10;;;;;;;-7.21;51.48;102112.56;5086944;28;20174;-68
2023/12/08 09:50:20;;;;;;;16.48;7.53;;;;;;;-6.79;51.97;102159.69;5077166;28;20492;-65
2023/12/08 09:52:47;;;;;;;13.93;6.00;;;;;;;-6.26;51.93;102158.09;5071775;28;20096;-65
2023/12/08 09:55:15;;;;;;;17.50;8.27;;;;;;;-5.88;53.13;102172.63;5055888;28;20036;-65
2023/12/08 09:57:44;;;;;;;17.23;7.68;;;;;;;-5.60;51.26;102169.44;5072046;28;20067;-71
2023/12/08 10:00:15;;;;;;;11.93;6.07;;;;;;;-5.93;50.85;102170.56;5056237;28;20047;-65
2023/12/08 10:02:41;;;;;;;15.82;7.10;;;;;;;-6.53;51.35;102142.03;5054695;28;20081;-65
2023/12/08 10:05:11;;;;;;;18.05;7.13;;;;;;;-7.18;51.04;102168.56;5052918;28;20039;-67
2023/12/08 10:07:40;;;;;;;16.23;6.80;;;;;;;-7.45;51.85;102150.72;5056789;28;20047;-67
2023/12/08 10:10:08;;;;;;;10.25;5.30;;;;;;;-7.72;49.15;102158.94;5075921;28;20051;-64
2023/12/08 10:12:34;;;;;;;10.57;4.65;;;;;;;-8.42;49.62;102166.03;5072271;28;20046;-66
2023/12/08 10:15:01;;;;;;;13.93;7.00;;;;;;;-9.06;50.09;102163.53;5053450;28;20445;-65
2023/12/08 10:17:29;;;;;;;14.90;5.30;;;;;;;-9.20;51.00;102175.56;5072863;28;20046;-67
2023/12/08 10:20:09;;;;;;;13.48;5.95;;;;;;;-9.77;50.68;102181.94;5055615;28;20043;-64
2023/12/08 10:22:49;;;;;;;23.00;8.52;;;;;;;-9.96;51.69;102178.97;5037492;28;20097;-65
2023/12/08 10:25:17;;;;;;;16.52;7.13;;;;;;;-10.17;52.39;102161.66;5060953;28;20490;-65
2023/12/08 10:27:50;;;;;;;18.33;8.27;;;;;;;-9.86;54.48;102161.66;5043822;28;20040;-65
2023/12/08 10:30:18;;;;;;;20.17;7.72;;;;;;;-9.85;54.25;102160.94;5060591;28;20066;-66
2023/12/08 10:32:44;;;;;;;17.40;7.50;;;;;;;-9.90;55.54;102087.31;5057418;28;20060;-67
2023/12/08 10:35:14;;;;;;;17.92;7.60;;;;;;;-9.36;55.44;102094.78;5069596;28;20036;-66
2023/12/08 10:37:41;;;;;;;21.65;7.80;;;;;;;-8.71;55.14;102141.16;5071312;28;20044;-66
2023/12/08 10:40:12;;;;;;;11.98;5.70;;;;;;;-9.24;52.72;102135.59;5068378;28;20040;-62
2023/12/08 10:42:39;;;;;;;11.80;4.93;;;;;;;-9.82;53.47;102137.69;5059449;28;20043;-66
2023/12/08 10:45:10;;;;;;;16.70;6.30;;;;;;;-9.89;53.80;102151.22;5059176;28;20036;-65
2023/12/08 10:47:43;;;;;;;23.52;8.80;;;;;;;-9.75;54.43;102151.13;5060918;28;20044;-67
2023/12/08 10:50:10;;;;;;;20.80;7.05;;;;;;;-9.80;54.08;102131.19;5053487;28;20500;-67
2023/12/08 10:52:40;;;;;;;16.63;6.88;;;;;;;-9.80;54.41;102111.03;5088353;28;20145;-65
2023/12/08 10:55:07;;;;;;;14.30;7.47;;;;;;;-9.84;54.73;102115.72;5071521;28;20045;-64
2023/12/08 10:57:34;;;;;;;17.17;7.45;;;;;;;-9.82;54.71;102125.06;5072039;28;20119;-71
2023/12/08 11:00:16;;;;;;;15.13;6.90;;;;;;;-10.04;54.45;102112.63;5073187;28;20572;-75
2023/12/08 11:02:47;;;;;;;10.20;4.85;;;;;;;-10.24;53.21;102135.59;5077408;28;20040;-73
2023/12/08 11:05:20;;;;;;;22.63;8.85;;;;;;;-10.35;54.01;102136.91;5081133;28;20127;-73
2023/12/08 11:07:49;;;;;;;19.07;7.47;;;;;;;-10.18;55.01;102149.78;5060203;28;20044;-76
2023/12/08 11:10:15;;;;;;;11.93;4.80;;;;;;;-10.12;53.51;102157.13;5077161;28;20082;-70